sensor_id;sensor_type;location;lat;lon;timestamp;pressure;altitude;pressure_sealevel;temperature;humidity
33286;BME280;19656;50.096;20.014;2022-08-03T00:00:53;99256.94;;;21.34;60.89
33286;BME280;19656;50.096;20.014;2022-08-03T00:05:57;99257.45;;;21.31;61.00
33286;BME280;19656;50.096;20.014;2022-08-03T00:11:06;99258.98;;;21.24;60.95
33286;BME280;19656;50.096;20.014;2022-08-03T00:16:10;99263.75;;;21.20;61.01
33286;BME280;19656;50.096;20.014;2022-08-03T00:21:13;99264.95;;;21.19;61.19
33286;BME280;19656;50.096;20.014;2022-08-03T00:26:17;99262.91;;;21.16;61.14
33286;BME280;19656;50.096;20.014;2022-08-03T00:31:20;99260.52;;;21.09;61.28
33286;BME280;19656;50.096;20.014;2022-08-03T00:36:43;99263.73;;;21.04;61.33
33286;BME280;19656;50.096;20.014;2022-08-03T00:41:45;99263.55;;;21.02;61.43
33286;BME280;19656;50.096;20.014;2022-08-03T00:46:48;99265.48;;;20.99;61.50
33286;BME280;19656;50.096;20.014;2022-08-03T00:51:51;99272.66;;;20.96;61.59
33286;BME280;19656;50.096;20.014;2022-08-03T00:56:54;99276.88;;;20.92;61.59
33286;BME280;19656;50.096;20.014;2022-08-03T01:02:02;99280.96;;;20.84;61.74
33286;BME280;19656;50.096;20.014;2022-08-03T01:07:16;99276.91;;;20.77;61.75
33286;BME280;19656;50.096;20.014;2022-08-03T01:12:30;99275.45;;;20.72;61.85
33286;BME280;19656;50.096;20.014;2022-08-03T01:17:39;99268.26;;;20.70;62.01
33286;BME280;19656;50.096;20.014;2022-08-03T01:22:59;99271.70;;;20.69;62.12
33286;BME280;19656;50.096;20.014;2022-08-03T01:33:19;99272.87;;;20.60;62.29
33286;BME280;19656;50.096;20.014;2022-08-03T01:38:28;99275.44;;;20.54;62.34
33286;BME280;19656;50.096;20.014;2022-08-03T01:43:34;99276.62;;;20.51;62.32
33286;BME280;19656;50.096;20.014;2022-08-03T01:48:58;99274.44;;;20.52;62.48
33286;BME280;19656;50.096;20.014;2022-08-03T01:54:12;99265.48;;;20.53;62.74
33286;BME280;19656;50.096;20.014;2022-08-03T01:59:15;99267.54;;;20.52;62.65
33286;BME280;19656;50.096;20.014;2022-08-03T02:04:20;99259.35;;;20.51;62.85
33286;BME280;19656;50.096;20.014;2022-08-03T02:09:25;99258.34;;;20.48;62.83
33286;BME280;19656;50.096;20.014;2022-08-03T02:14:30;99262.17;;;20.46;62.84
33286;BME280;19656;50.096;20.014;2022-08-03T02:19:34;99260.73;;;20.41;62.58
33286;BME280;19656;50.096;20.014;2022-08-03T02:24:37;99262.52;;;20.37;62.73
33286;BME280;19656;50.096;20.014;2022-08-03T02:29:41;99258.55;;;20.37;62.90
33286;BME280;19656;50.096;20.014;2022-08-03T02:34:49;99257.70;;;20.37;63.01
33286;BME280;19656;50.096;20.014;2022-08-03T02:39:58;99258.34;;;20.36;63.01
33286;BME280;19656;50.096;20.014;2022-08-03T02:45:05;99261.02;;;20.32;62.97
33286;BME280;19656;50.096;20.014;2022-08-03T02:50:13;99255.36;;;20.33;62.94
33286;BME280;19656;50.096;20.014;2022-08-03T02:55:18;99255.90;;;20.35;63.02
33286;BME280;19656;50.096;20.014;2022-08-03T03:00:22;99256.39;;;20.36;62.97
33286;BME280;19656;50.096;20.014;2022-08-03T03:05:30;99260.02;;;20.33;62.98
33286;BME280;19656;50.096;20.014;2022-08-03T03:10:55;99266.16;;;20.28;62.85
33286;BME280;19656;50.096;20.014;2022-08-03T03:16:00;99270.52;;;20.16;62.53
33286;BME280;19656;50.096;20.014;2022-08-03T03:21:06;99267.48;;;20.05;62.68
33286;BME280;19656;50.096;20.014;2022-08-03T03:26:09;99265.84;;;20.09;62.59
33286;BME280;19656;50.096;20.014;2022-08-03T03:31:14;99263.92;;;20.10;62.74
33286;BME280;19656;50.096;20.014;2022-08-03T03:36:18;99264.29;;;20.16;62.70
33286;BME280;19656;50.096;20.014;2022-08-03T03:41:21;99263.20;;;20.23;63.15
33286;BME280;19656;50.096;20.014;2022-08-03T03:46:24;99270.80;;;20.26;62.92
33286;BME280;19656;50.096;20.014;2022-08-03T03:51:27;99277.30;;;20.26;63.04
33286;BME280;19656;50.096;20.014;2022-08-03T03:56:30;99279.56;;;20.32;62.86
33286;BME280;19656;50.096;20.014;2022-08-03T04:01:33;99282.61;;;20.42;62.96
33286;BME280;19656;50.096;20.014;2022-08-03T04:06:36;99283.38;;;20.48;62.86
33286;BME280;19656;50.096;20.014;2022-08-03T04:11:59;99290.34;;;20.51;62.65
33286;BME280;19656;50.096;20.014;2022-08-03T04:17:06;99294.69;;;20.51;62.44
33286;BME280;19656;50.096;20.014;2022-08-03T04:22:13;99296.20;;;20.45;62.18
33286;BME280;19656;50.096;20.014;2022-08-03T04:27:21;99299.95;;;20.28;61.86
33286;BME280;19656;50.096;20.014;2022-08-03T04:32:25;99303.08;;;20.19;62.21
33286;BME280;19656;50.096;20.014;2022-08-03T04:37:45;99314.49;;;20.18;62.71
33286;BME280;19656;50.096;20.014;2022-08-03T04:42:49;99316.64;;;20.22;62.92
33286;BME280;19656;50.096;20.014;2022-08-03T04:47:54;99321.25;;;20.24;63.04
33286;BME280;19656;50.096;20.014;2022-08-03T04:52:58;99326.64;;;20.30;63.34
33286;BME280;19656;50.096;20.014;2022-08-03T04:58:03;99330.77;;;20.36;63.50
33286;BME280;19656;50.096;20.014;2022-08-03T05:03:06;99328.42;;;20.45;63.51
33286;BME280;19656;50.096;20.014;2022-08-03T05:08:26;99324.76;;;20.55;63.66
33286;BME280;19656;50.096;20.014;2022-08-03T05:13:30;99323.87;;;20.64;63.72
33286;BME280;19656;50.096;20.014;2022-08-03T05:18:33;99323.16;;;20.77;63.80
33286;BME280;19656;50.096;20.014;2022-08-03T05:23:37;99324.89;;;20.86;63.84
33286;BME280;19656;50.096;20.014;2022-08-03T05:28:40;99322.71;;;20.95;63.86
33286;BME280;19656;50.096;20.014;2022-08-03T05:33:53;99323.79;;;21.04;63.76
33286;BME280;19656;50.096;20.014;2022-08-03T05:38:56;99321.20;;;21.17;63.80
33286;BME280;19656;50.096;20.014;2022-08-03T05:44:05;99320.24;;;21.32;64.00
33286;BME280;19656;50.096;20.014;2022-08-03T05:49:08;99323.30;;;21.48;64.02
33286;BME280;19656;50.096;20.014;2022-08-03T05:54:11;99323.55;;;21.64;63.84
33286;BME280;19656;50.096;20.014;2022-08-03T05:59:13;99322.84;;;21.81;63.87
33286;BME280;19656;50.096;20.014;2022-08-03T06:04:36;99322.70;;;21.92;63.76
33286;BME280;19656;50.096;20.014;2022-08-03T06:09:39;99326.21;;;22.02;63.69
33286;BME280;19656;50.096;20.014;2022-08-03T06:15:03;99330.86;;;22.15;63.43
33286;BME280;19656;50.096;20.014;2022-08-03T06:20:10;99331.80;;;22.28;63.60
33286;BME280;19656;50.096;20.014;2022-08-03T06:25:13;99334.04;;;22.45;63.61
33286;BME280;19656;50.096;20.014;2022-08-03T06:30:16;99331.85;;;22.52;63.14
33286;BME280;19656;50.096;20.014;2022-08-03T06:35:23;99327.39;;;22.56;62.98
33286;BME280;19656;50.096;20.014;2022-08-03T06:40:26;99329.09;;;22.62;62.97
33286;BME280;19656;50.096;20.014;2022-08-03T06:45:33;99335.42;;;22.69;62.90
33286;BME280;19656;50.096;20.014;2022-08-03T06:50:40;99331.52;;;22.79;62.93
33286;BME280;19656;50.096;20.014;2022-08-03T06:55:44;99333.39;;;22.94;62.96
33286;BME280;19656;50.096;20.014;2022-08-03T07:00:47;99334.17;;;23.05;62.70
33286;BME280;19656;50.096;20.014;2022-08-03T07:05:49;99330.75;;;23.17;62.68
33286;BME280;19656;50.096;20.014;2022-08-03T07:10:52;99336.02;;;23.25;62.45
33286;BME280;19656;50.096;20.014;2022-08-03T07:15:56;99336.13;;;23.32;62.34
33286;BME280;19656;50.096;20.014;2022-08-03T07:20:59;99336.42;;;23.34;62.18
33286;BME280;19656;50.096;20.014;2022-08-03T07:26:02;99337.65;;;23.36;62.14
33286;BME280;19656;50.096;20.014;2022-08-03T07:31:05;99341.83;;;23.41;62.07
33286;BME280;19656;50.096;20.014;2022-08-03T07:36:07;99340.36;;;23.49;62.01
33286;BME280;19656;50.096;20.014;2022-08-03T07:41:11;99340.87;;;23.58;62.04
33286;BME280;19656;50.096;20.014;2022-08-03T07:46:14;99342.70;;;23.67;61.85
33286;BME280;19656;50.096;20.014;2022-08-03T07:51:17;99339.00;;;23.76;61.80
33286;BME280;19656;50.096;20.014;2022-08-03T07:56:20;99337.13;;;23.85;61.71
33286;BME280;19656;50.096;20.014;2022-08-03T08:01:23;99334.83;;;23.94;61.56
33286;BME280;19656;50.096;20.014;2022-08-03T08:06:26;99329.60;;;24.05;61.47
33286;BME280;19656;50.096;20.014;2022-08-03T08:11:28;99330.42;;;24.17;61.38
33286;BME280;19656;50.096;20.014;2022-08-03T08:16:31;99333.45;;;24.30;61.14
33286;BME280;19656;50.096;20.014;2022-08-03T08:21:34;99335.06;;;24.37;60.79
33286;BME280;19656;50.096;20.014;2022-08-03T08:26:57;99334.42;;;24.39;60.44
33286;BME280;19656;50.096;20.014;2022-08-03T08:32:00;99333.48;;;24.46;60.42
33286;BME280;19656;50.096;20.014;2022-08-03T08:37:03;99333.68;;;24.57;60.35
33286;BME280;19656;50.096;20.014;2022-08-03T08:42:06;99333.32;;;24.66;60.16
33286;BME280;19656;50.096;20.014;2022-08-03T08:47:09;99337.88;;;24.83;60.16
33286;BME280;19656;50.096;20.014;2022-08-03T08:52:13;99334.84;;;25.02;59.90
33286;BME280;19656;50.096;20.014;2022-08-03T08:57:33;99336.83;;;25.20;59.57
33286;BME280;19656;50.096;20.014;2022-08-03T09:02:45;99331.41;;;25.29;59.23
33286;BME280;19656;50.096;20.014;2022-08-03T09:07:48;99331.66;;;25.37;58.92
33286;BME280;19656;50.096;20.014;2022-08-03T09:12:53;99330.72;;;25.40;58.43
33286;BME280;19656;50.096;20.014;2022-08-03T09:17:59;99327.86;;;25.49;58.42
33286;BME280;19656;50.096;20.014;2022-08-03T09:23:05;99326.98;;;25.59;57.80
33286;BME280;19656;50.096;20.014;2022-08-03T09:28:34;99324.23;;;25.61;57.52
33286;BME280;19656;50.096;20.014;2022-08-03T09:33:59;99317.83;;;25.83;57.69
33286;BME280;19656;50.096;20.014;2022-08-03T09:39:11;99319.78;;;26.05;57.91
33286;BME280;19656;50.096;20.014;2022-08-03T09:44:14;99319.98;;;26.23;57.71
33286;BME280;19656;50.096;20.014;2022-08-03T09:49:27;99316.45;;;26.41;57.14
33286;BME280;19656;50.096;20.014;2022-08-03T09:54:31;99313.20;;;26.57;56.71
33286;BME280;19656;50.096;20.014;2022-08-03T09:59:34;99314.16;;;26.51;56.01
33286;BME280;19656;50.096;20.014;2022-08-03T10:04:46;99312.90;;;26.30;55.68
33286;BME280;19656;50.096;20.014;2022-08-03T10:09:57;99304.59;;;26.09;55.59
33286;BME280;19656;50.096;20.014;2022-08-03T10:15:21;99310.38;;;25.96;55.70
33286;BME280;19656;50.096;20.014;2022-08-03T10:20:50;99308.10;;;26.07;56.14
33286;BME280;19656;50.096;20.014;2022-08-03T10:25:59;99305.36;;;26.21;55.97
33286;BME280;19656;50.096;20.014;2022-08-03T10:31:04;99307.79;;;26.35;55.84
33286;BME280;19656;50.096;20.014;2022-08-03T10:36:09;99306.57;;;26.49;55.58
33286;BME280;19656;50.096;20.014;2022-08-03T10:41:17;99302.37;;;26.54;54.99
33286;BME280;19656;50.096;20.014;2022-08-03T10:46:21;99305.38;;;26.50;54.59
33286;BME280;19656;50.096;20.014;2022-08-03T10:51:25;99303.88;;;26.46;54.25
33286;BME280;19656;50.096;20.014;2022-08-03T11:01:56;99292.19;;;26.69;54.60
33286;BME280;19656;50.096;20.014;2022-08-03T11:07:23;99290.86;;;26.58;54.05
33286;BME280;19656;50.096;20.014;2022-08-03T11:12:31;99294.34;;;26.45;53.62
33286;BME280;19656;50.096;20.014;2022-08-03T11:17:35;99287.02;;;26.48;53.80
33286;BME280;19656;50.096;20.014;2022-08-03T11:22:58;99278.61;;;26.82;53.95
33286;BME280;19656;50.096;20.014;2022-08-03T11:28:28;99270.19;;;27.21;53.39
33286;BME280;19656;50.096;20.014;2022-08-03T11:33:32;99268.81;;;27.53;53.04
33286;BME280;19656;50.096;20.014;2022-08-03T11:39:13;99262.15;;;27.86;52.68
33286;BME280;19656;50.096;20.014;2022-08-03T11:44:40;99256.15;;;28.12;51.71
33286;BME280;19656;50.096;20.014;2022-08-03T11:49:50;99252.34;;;28.08;50.82
33286;BME280;19656;50.096;20.014;2022-08-03T11:54:53;99251.58;;;27.97;50.35
33286;BME280;19656;50.096;20.014;2022-08-03T11:59:59;99244.98;;;27.85;50.20
33286;BME280;19656;50.096;20.014;2022-08-03T12:05:02;99244.50;;;27.90;50.40
33286;BME280;19656;50.096;20.014;2022-08-03T12:10:10;99240.48;;;28.01;50.08
33286;BME280;19656;50.096;20.014;2022-08-03T12:15:13;99233.09;;;28.31;49.96
33286;BME280;19656;50.096;20.014;2022-08-03T12:20:26;99227.77;;;28.64;49.41
33286;BME280;19656;50.096;20.014;2022-08-03T12:25:38;99227.50;;;28.76;49.05
33286;BME280;19656;50.096;20.014;2022-08-03T12:30:42;99227.60;;;29.15;49.01
33286;BME280;19656;50.096;20.014;2022-08-03T12:36:06;99220.77;;;29.40;48.15
33286;BME280;19656;50.096;20.014;2022-08-03T12:41:10;99216.16;;;29.38;47.79
33286;BME280;19656;50.096;20.014;2022-08-03T12:46:16;99211.13;;;29.55;47.70
33286;BME280;19656;50.096;20.014;2022-08-03T12:51:19;99213.96;;;29.49;46.71
33286;BME280;19656;50.096;20.014;2022-08-03T12:56:23;99209.26;;;29.18;46.29
33286;BME280;19656;50.096;20.014;2022-08-03T13:01:35;99207.21;;;28.94;46.37
33286;BME280;19656;50.096;20.014;2022-08-03T13:06:38;99204.58;;;28.85;46.45
33286;BME280;19656;50.096;20.014;2022-08-03T13:11:41;99200.04;;;28.67;46.29
33286;BME280;19656;50.096;20.014;2022-08-03T13:17:04;99193.75;;;28.90;46.76
33286;BME280;19656;50.096;20.014;2022-08-03T13:22:23;99192.11;;;29.36;46.74
33286;BME280;19656;50.096;20.014;2022-08-03T13:27:27;99195.69;;;29.83;46.17
33286;BME280;19656;50.096;20.014;2022-08-03T13:32:50;99191.61;;;30.24;45.57
33286;BME280;19656;50.096;20.014;2022-08-03T13:37:53;99187.83;;;30.59;45.10
33286;BME280;19656;50.096;20.014;2022-08-03T13:42:57;99177.70;;;30.89;44.41
33286;BME280;19656;50.096;20.014;2022-08-03T13:48:00;99181.34;;;31.10;43.16
33286;BME280;19656;50.096;20.014;2022-08-03T13:53:03;99187.93;;;31.25;42.49
33286;BME280;19656;50.096;20.014;2022-08-03T13:58:06;99184.44;;;31.49;42.59
33286;BME280;19656;50.096;20.014;2022-08-03T14:03:11;99179.32;;;31.72;42.05
33286;BME280;19656;50.096;20.014;2022-08-03T14:08:16;99177.15;;;31.79;41.16
33286;BME280;19656;50.096;20.014;2022-08-03T14:13:19;99175.55;;;31.82;40.94
33286;BME280;19656;50.096;20.014;2022-08-03T14:18:22;99176.91;;;31.92;40.64
33286;BME280;19656;50.096;20.014;2022-08-03T14:23:35;99173.70;;;31.91;40.19
33286;BME280;19656;50.096;20.014;2022-08-03T14:28:41;99171.69;;;31.92;39.98
33286;BME280;19656;50.096;20.014;2022-08-03T14:33:44;99167.08;;;31.89;39.95
33286;BME280;19656;50.096;20.014;2022-08-03T14:38:47;99163.20;;;31.73;39.66
33286;BME280;19656;50.096;20.014;2022-08-03T14:43:50;99162.74;;;31.57;39.55
33286;BME280;19656;50.096;20.014;2022-08-03T14:49:04;99155.56;;;31.42;39.54
33286;BME280;19656;50.096;20.014;2022-08-03T14:54:27;99158.58;;;31.21;39.35
33286;BME280;19656;50.096;20.014;2022-08-03T14:59:32;99160.06;;;30.95;39.40
33286;BME280;19656;50.096;20.014;2022-08-03T15:04:55;99157.98;;;30.66;39.39
33286;BME280;19656;50.096;20.014;2022-08-03T15:09:58;99157.98;;;30.40;39.37
33286;BME280;19656;50.096;20.014;2022-08-03T15:15:04;99153.86;;;30.17;39.61
33286;BME280;19656;50.096;20.014;2022-08-03T15:20:08;99149.60;;;29.96;39.46
33286;BME280;19656;50.096;20.014;2022-08-03T15:25:31;99147.15;;;29.75;39.75
33286;BME280;19656;50.096;20.014;2022-08-03T15:30:54;99145.10;;;29.56;39.88
33286;BME280;19656;50.096;20.014;2022-08-03T15:35:57;99143.93;;;29.42;40.00
33286;BME280;19656;50.096;20.014;2022-08-03T15:41:01;99143.81;;;29.35;39.79
33286;BME280;19656;50.096;20.014;2022-08-03T15:46:05;99143.20;;;29.28;39.57
33286;BME280;19656;50.096;20.014;2022-08-03T15:51:28;99141.70;;;29.23;39.39
33286;BME280;19656;50.096;20.014;2022-08-03T15:56:31;99135.02;;;29.19;39.56
33286;BME280;19656;50.096;20.014;2022-08-03T16:01:34;99132.55;;;29.12;39.75
33286;BME280;19656;50.096;20.014;2022-08-03T16:06:37;99129.19;;;29.06;39.80
33286;BME280;19656;50.096;20.014;2022-08-03T16:11:40;99126.95;;;29.00;39.95
33286;BME280;19656;50.096;20.014;2022-08-03T16:16:43;99124.58;;;28.93;39.83
33286;BME280;19656;50.096;20.014;2022-08-03T16:21:48;99116.10;;;28.88;39.94
33286;BME280;19656;50.096;20.014;2022-08-03T16:26:51;99112.40;;;28.82;40.42
33286;BME280;19656;50.096;20.014;2022-08-03T16:31:54;99110.80;;;28.74;40.65
33286;BME280;19656;50.096;20.014;2022-08-03T16:36:58;99104.89;;;28.64;40.70
33286;BME280;19656;50.096;20.014;2022-08-03T16:42:21;99104.73;;;28.50;40.76
33286;BME280;19656;50.096;20.014;2022-08-03T16:47:24;99105.07;;;28.38;40.80
33286;BME280;19656;50.096;20.014;2022-08-03T16:52:27;99104.53;;;28.30;40.85
33286;BME280;19656;50.096;20.014;2022-08-03T16:57:30;99108.80;;;28.20;41.16
33286;BME280;19656;50.096;20.014;2022-08-03T17:02:55;99111.94;;;28.10;41.12
33286;BME280;19656;50.096;20.014;2022-08-03T17:07:59;99116.54;;;27.99;41.29
33286;BME280;19656;50.096;20.014;2022-08-03T17:13:12;99116.27;;;27.93;41.36
33286;BME280;19656;50.096;20.014;2022-08-03T17:18:25;99121.94;;;27.88;41.43
33286;BME280;19656;50.096;20.014;2022-08-03T17:23:44;99127.29;;;27.81;41.76
33286;BME280;19656;50.096;20.014;2022-08-03T17:29:02;99127.62;;;27.73;41.81
33286;BME280;19656;50.096;20.014;2022-08-03T17:34:15;99132.30;;;27.63;42.12
33286;BME280;19656;50.096;20.014;2022-08-03T17:39:19;99140.21;;;27.54;42.58
33286;BME280;19656;50.096;20.014;2022-08-03T17:44:44;99145.08;;;27.43;42.92
33286;BME280;19656;50.096;20.014;2022-08-03T17:49:48;99146.35;;;27.36;43.25
33286;BME280;19656;50.096;20.014;2022-08-03T17:55:05;99154.20;;;27.29;43.49
33286;BME280;19656;50.096;20.014;2022-08-03T18:00:36;99154.45;;;27.30;43.83
33286;BME280;19656;50.096;20.014;2022-08-03T18:06:04;99157.24;;;27.25;43.98
33286;BME280;19656;50.096;20.014;2022-08-03T18:11:16;99158.03;;;27.18;44.27
33286;BME280;19656;50.096;20.014;2022-08-03T18:16:27;99163.91;;;27.09;44.38
33286;BME280;19656;50.096;20.014;2022-08-03T18:21:33;99174.09;;;26.99;44.74
33286;BME280;19656;50.096;20.014;2022-08-03T18:26:58;99179.82;;;26.96;45.17
33286;BME280;19656;50.096;20.014;2022-08-03T18:32:04;99187.11;;;26.88;45.25
33286;BME280;19656;50.096;20.014;2022-08-03T18:37:16;99194.20;;;26.77;45.37
33286;BME280;19656;50.096;20.014;2022-08-03T18:42:26;99199.09;;;26.67;45.68
33286;BME280;19656;50.096;20.014;2022-08-03T18:53:11;99212.98;;;26.47;46.22
33286;BME280;19656;50.096;20.014;2022-08-03T18:58:35;99216.48;;;26.38;46.55
33286;BME280;19656;50.096;20.014;2022-08-03T19:03:45;99222.27;;;26.26;47.03
33286;BME280;19656;50.096;20.014;2022-08-03T19:09:02;99219.09;;;26.18;47.27
33286;BME280;19656;50.096;20.014;2022-08-03T19:14:07;99219.76;;;26.11;47.48
33286;BME280;19656;50.096;20.014;2022-08-03T19:19:16;99224.03;;;26.00;47.70
33286;BME280;19656;50.096;20.014;2022-08-03T19:24:20;99229.83;;;25.89;48.13
33286;BME280;19656;50.096;20.014;2022-08-03T19:29:29;99233.91;;;25.78;48.36
33286;BME280;19656;50.096;20.014;2022-08-03T19:34:53;99231.70;;;25.66;48.50
33286;BME280;19656;50.096;20.014;2022-08-03T19:39:57;99234.92;;;25.56;48.91
33286;BME280;19656;50.096;20.014;2022-08-03T19:45:05;99238.46;;;25.45;49.25
33286;BME280;19656;50.096;20.014;2022-08-03T19:50:18;99242.76;;;25.35;49.44
33286;BME280;19656;50.096;20.014;2022-08-03T19:55:21;99245.75;;;25.25;49.69
33286;BME280;19656;50.096;20.014;2022-08-03T20:00:36;99244.98;;;25.16;49.99
33286;BME280;19656;50.096;20.014;2022-08-03T20:05:40;99242.75;;;25.06;50.14
33286;BME280;19656;50.096;20.014;2022-08-03T20:10:54;99245.36;;;24.91;50.47
33286;BME280;19656;50.096;20.014;2022-08-03T20:15:57;99245.25;;;24.84;50.73
33286;BME280;19656;50.096;20.014;2022-08-03T20:21:10;99241.40;;;24.74;50.91
33286;BME280;19656;50.096;20.014;2022-08-03T20:26:17;99234.17;;;24.63;50.95
33286;BME280;19656;50.096;20.014;2022-08-03T20:31:24;99231.61;;;24.54;51.19
33286;BME280;19656;50.096;20.014;2022-08-03T20:36:37;99226.11;;;24.44;51.38
33286;BME280;19656;50.096;20.014;2022-08-03T20:41:40;99220.27;;;24.31;51.64
33286;BME280;19656;50.096;20.014;2022-08-03T20:46:44;99224.83;;;24.20;51.81
33286;BME280;19656;50.096;20.014;2022-08-03T20:52:02;99223.88;;;24.10;52.07
33286;BME280;19656;50.096;20.014;2022-08-03T20:57:05;99229.48;;;24.01;52.28
33286;BME280;19656;50.096;20.014;2022-08-03T21:02:11;99237.14;;;23.93;52.45
33286;BME280;19656;50.096;20.014;2022-08-03T21:07:22;99238.23;;;23.81;52.63
33286;BME280;19656;50.096;20.014;2022-08-03T21:12:38;99239.94;;;23.71;52.87
33286;BME280;19656;50.096;20.014;2022-08-03T21:17:45;99237.61;;;23.61;53.09
33286;BME280;19656;50.096;20.014;2022-08-03T21:22:52;99240.21;;;23.52;53.31
33286;BME280;19656;50.096;20.014;2022-08-03T21:27:56;99248.24;;;23.44;53.50
33286;BME280;19656;50.096;20.014;2022-08-03T21:32:59;99253.02;;;23.35;53.73
33286;BME280;19656;50.096;20.014;2022-08-03T21:38:02;99250.95;;;23.26;53.90
33286;BME280;19656;50.096;20.014;2022-08-03T21:43:21;99255.70;;;23.21;54.15
33286;BME280;19656;50.096;20.014;2022-08-03T21:48:25;99257.84;;;23.20;54.33
33286;BME280;19656;50.096;20.014;2022-08-03T21:53:30;99260.66;;;23.19;54.43
33286;BME280;19656;50.096;20.014;2022-08-03T21:58:59;99264.33;;;23.15;54.56
33286;BME280;19656;50.096;20.014;2022-08-03T22:04:06;99263.70;;;23.09;54.66
33286;BME280;19656;50.096;20.014;2022-08-03T22:09:29;99260.94;;;23.01;54.89
33286;BME280;19656;50.096;20.014;2022-08-03T22:14:32;99257.91;;;22.94;54.98
33286;BME280;19656;50.096;20.014;2022-08-03T22:19:35;99254.16;;;22.89;55.17
33286;BME280;19656;50.096;20.014;2022-08-03T22:24:42;99254.52;;;22.82;55.22
33286;BME280;19656;50.096;20.014;2022-08-03T22:29:47;99256.37;;;22.75;55.35
33286;BME280;19656;50.096;20.014;2022-08-03T22:34:51;99262.13;;;22.67;55.53
33286;BME280;19656;50.096;20.014;2022-08-03T22:39:55;99260.19;;;22.59;55.72
33286;BME280;19656;50.096;20.014;2022-08-03T22:45:00;99265.80;;;22.52;55.74
33286;BME280;19656;50.096;20.014;2022-08-03T22:50:06;99259.17;;;22.49;55.99
33286;BME280;19656;50.096;20.014;2022-08-03T22:55:29;99262.46;;;22.48;56.09
33286;BME280;19656;50.096;20.014;2022-08-03T23:00:32;99262.48;;;22.44;56.17
33286;BME280;19656;50.096;20.014;2022-08-03T23:05:35;99261.16;;;22.39;56.09
33286;BME280;19656;50.096;20.014;2022-08-03T23:11:04;99257.73;;;22.32;56.27
33286;BME280;19656;50.096;20.014;2022-08-03T23:16:08;99254.90;;;22.25;56.34
33286;BME280;19656;50.096;20.014;2022-08-03T23:21:11;99254.52;;;22.19;56.49
33286;BME280;19656;50.096;20.014;2022-08-03T23:26:16;99252.16;;;22.10;56.57
33286;BME280;19656;50.096;20.014;2022-08-03T23:31:20;99251.55;;;22.03;56.78
33286;BME280;19656;50.096;20.014;2022-08-03T23:36:24;99250.34;;;21.97;56.83
33286;BME280;19656;50.096;20.014;2022-08-03T23:41:34;99248.61;;;21.94;56.95
33286;BME280;19656;50.096;20.014;2022-08-03T23:46:37;99242.92;;;21.93;57.04
33286;BME280;19656;50.096;20.014;2022-08-03T23:51:51;99238.82;;;21.91;57.25
33286;BME280;19656;50.096;20.014;2022-08-03T23:57:12;99243.25;;;21.88;57.34
